createdAt,value
2017-09-13T00:00:01.133Z,784.1
2017-09-13T00:00:05.184Z,784.07
2017-09-13T00:00:09.269Z,784.06
2017-09-13T00:00:13.484Z,784.08
2017-09-13T00:00:17.697Z,784.08
2017-09-13T00:00:21.898Z,784.09
2017-09-13T00:00:26.238Z,784.09
2017-09-13T00:00:30.333Z,784.1
2017-09-13T00:00:34.703Z,784.05
2017-09-13T00:00:38.675Z,784.09
2017-09-13T00:00:42.755Z,784.07
2017-09-13T00:00:46.857Z,784.05
2017-09-13T00:00:50.811Z,784.1
2017-09-13T00:00:54.639Z,784.1
2017-09-13T00:00:58.609Z,784.06
2017-09-13T00:01:02.564Z,784.06
2017-09-13T00:01:06.640Z,784.05
2017-09-13T00:01:10.963Z,784.08
2017-09-13T00:01:15.166Z,784.1
2017-09-13T00:01:19.129Z,784.06
2017-09-13T00:01:23.217Z,784.07
2017-09-13T00:01:27.304Z,784.07
2017-09-13T00:01:31.507Z,784.01
2017-09-13T00:01:35.839Z,784.02
2017-09-13T00:01:39.921Z,784.06
2017-09-13T00:01:44.151Z,784.08
2017-09-13T00:01:48.356Z,784.06
2017-09-13T00:01:52.448Z,784.09
2017-09-13T00:01:56.666Z,784.08
2017-09-13T00:02:00.880Z,784.12
2017-09-13T00:02:05.132Z,784.06
2017-09-13T00:02:09.098Z,784.1
2017-09-13T00:02:13.052Z,784.09
2017-09-13T00:02:17.125Z,784.07
2017-09-13T00:02:21.333Z,784.1
2017-09-13T00:02:25.425Z,784.08
2017-09-13T00:02:29.525Z,784.07
2017-09-13T00:02:33.479Z,784.11
2017-09-13T00:02:37.560Z,784.11
2017-09-13T00:02:41.909Z,784.1
2017-09-13T00:02:45.755Z,784.08
2017-09-13T00:02:49.840Z,784.1
2017-09-13T00:02:53.672Z,784.1
2017-09-13T00:02:57.759Z,784.13
2017-09-13T00:03:01.841Z,784.12
2017-09-13T00:03:06.048Z,784.11
2017-09-13T00:03:10.131Z,784.1
2017-09-13T00:03:13.828Z,784.09
2017-09-13T00:03:17.909Z,784.09
2017-09-13T00:03:21.990Z,784.11
2017-09-13T00:03:25.706Z,784.12
2017-09-13T00:03:30.041Z,784.13
2017-09-13T00:03:34.134Z,784.16
2017-09-13T00:03:38.253Z,784.15
2017-09-13T00:03:42.091Z,784.16
2017-09-13T00:03:46.171Z,784.15
2017-09-13T00:03:50.153Z,784.17
2017-09-13T00:03:54.124Z,784.17
2017-09-13T00:03:58.082Z,784.18
2017-09-13T00:04:02.300Z,784.17
2017-09-13T00:04:06.526Z,784.18
2017-09-13T00:04:10.620Z,784.18
2017-09-13T00:04:14.581Z,784.19
2017-09-13T00:04:18.671Z,784.15
2017-09-13T00:04:22.632Z,784.17
2017-09-13T00:04:26.463Z,784.23
2017-09-13T00:04:30.822Z,784.2
2017-09-13T00:04:35.145Z,784.21
2017-09-13T00:04:39.464Z,784.2
2017-09-13T00:04:43.560Z,784.17
2017-09-13T00:04:47.508Z,784.23
2017-09-13T00:04:51.593Z,784.18
2017-09-13T00:04:55.549Z,784.26
2017-09-13T00:04:59.510Z,784.26
2017-09-13T00:05:03.591Z,784.24
2017-09-13T00:05:07.815Z,784.24
2017-09-13T00:05:11.642Z,784.24
2017-09-13T00:05:15.605Z,784.23
2017-09-13T00:05:19.687Z,784.25
2017-09-13T00:05:23.901Z,784.22
2017-09-13T00:05:27.979Z,784.23
2017-09-13T00:05:32.200Z,784.25
2017-09-13T00:05:36.543Z,784.25
2017-09-13T00:05:40.868Z,784.25
2017-09-13T00:05:44.697Z,784.27
2017-09-13T00:05:48.901Z,784.27
2017-09-13T00:05:53.109Z,784.28
2017-09-13T00:05:57.320Z,784.24
2017-09-13T00:06:01.291Z,784.27
2017-09-13T00:06:05.863Z,784.24
2017-09-13T00:06:10.071Z,784.31
2017-09-13T00:06:14.035Z,784.32
2017-09-13T00:06:18.370Z,784.33
2017-09-13T00:06:22.727Z,784.29
2017-09-13T00:06:26.967Z,784.28
2017-09-13T00:06:31.054Z,784.28
2017-09-13T00:06:35.267Z,784.26
2017-09-13T00:06:39.342Z,784.27
2017-09-13T00:06:43.464Z,784.29
2017-09-13T00:06:47.537Z,784.34
2017-09-13T00:06:51.887Z,784.29
2017-09-13T00:06:55.962Z,784.33
2017-09-13T00:07:00.093Z,784.32
2017-09-13T00:07:04.053Z,784.36
2017-09-13T00:07:08.010Z,784.35
2017-09-13T00:07:12.226Z,784.35
2017-09-13T00:07:16.456Z,784.37
2017-09-13T00:07:20.284Z,784.37
2017-09-13T00:07:24.487Z,784.37
2017-09-13T00:07:28.821Z,784.41
2017-09-13T00:07:32.919Z,784.38
2017-09-13T00:07:36.994Z,784.4
2017-09-13T00:07:41.086Z,784.38
2017-09-13T00:07:45.308Z,784.41
2017-09-13T00:07:49.395Z,784.39
2017-09-13T00:07:53.368Z,784.41
2017-09-13T00:07:57.088Z,784.41
2017-09-13T00:08:01.171Z,784.38
2017-09-13T00:08:05.279Z,784.38
2017-09-13T00:08:09.367Z,784.41
2017-09-13T00:08:13.340Z,784.42
2017-09-13T00:08:17.298Z,784.42
2017-09-13T00:08:21.375Z,784.45
2017-09-13T00:08:25.095Z,784.45
2017-09-13T00:08:29.179Z,784.46
2017-09-13T00:08:33.511Z,784.47
2017-09-13T00:08:37.841Z,784.45
2017-09-13T00:08:41.800Z,784.46
2017-09-13T00:08:46.016Z,784.47
2017-09-13T00:08:50.211Z,784.47
2017-09-13T00:08:54.443Z,784.48
2017-09-13T00:08:58.800Z,784.48
2017-09-13T00:09:03.174Z,784.48
2017-09-13T00:09:07.389Z,784.45
2017-09-13T00:09:11.712Z,784.48
2017-09-13T00:09:15.803Z,784.49
2017-09-13T00:09:19.905Z,784.45
2017-09-13T00:09:24.114Z,784.47
2017-09-13T00:09:27.957Z,784.46
2017-09-13T00:09:32.428Z,784.49
2017-09-13T00:09:36.637Z,784.48
2017-09-13T00:09:40.467Z,784.47
2017-09-13T00:09:44.447Z,784.47
2017-09-13T00:09:48.537Z,784.5
2017-09-13T00:09:52.508Z,784.49
2017-09-13T00:09:56.841Z,784.48
2017-09-13T00:10:00.911Z,784.5
2017-09-13T00:10:05.032Z,784.47
2017-09-13T00:10:09.248Z,784.5
2017-09-13T00:10:13.331Z,784.5
2017-09-13T00:10:17.290Z,784.51
2017-09-13T00:10:21.258Z,784.53
2017-09-13T00:10:25.090Z,784.51
2017-09-13T00:10:29.296Z,784.54
2017-09-13T00:10:33.127Z,784.53
2017-09-13T00:10:37.347Z,784.53
2017-09-13T00:10:41.177Z,784.55
2017-09-13T00:10:45.262Z,784.53
2017-09-13T00:10:49.233Z,784.51
2017-09-13T00:10:53.073Z,784.5
2017-09-13T00:10:57.426Z,784.57
2017-09-13T00:11:01.132Z,784.56
2017-09-13T00:11:05.490Z,784.57
2017-09-13T00:11:09.467Z,784.55
2017-09-13T00:11:13.421Z,784.57
2017-09-13T00:11:17.616Z,784.57
2017-09-13T00:11:21.943Z,784.57
2017-09-13T00:11:25.905Z,784.55
2017-09-13T00:11:29.986Z,784.58
2017-09-13T00:11:33.953Z,784.58
2017-09-13T00:11:38.286Z,784.58
2017-09-13T00:11:42.369Z,784.56
2017-09-13T00:11:46.498Z,784.6
2017-09-13T00:11:50.841Z,784.6
2017-09-13T00:11:54.673Z,784.59
2017-09-13T00:11:58.637Z,784.61
2017-09-13T00:12:03.347Z,784.56
2017-09-13T00:12:07.201Z,784.57
2017-09-13T00:12:11.284Z,784.59
2017-09-13T00:12:15.242Z,784.55
2017-09-13T00:12:19.328Z,784.56
2017-09-13T00:12:23.423Z,784.52
2017-09-13T00:12:27.769Z,784.56
2017-09-13T00:12:31.855Z,784.59
2017-09-13T00:12:36.072Z,784.57
2017-09-13T00:12:40.415Z,784.61
2017-09-13T00:12:44.485Z,784.57
2017-09-13T00:12:48.570Z,784.6
2017-09-13T00:12:52.902Z,784.61
2017-09-13T00:12:57.114Z,784.56
2017-09-13T00:13:01.318Z,784.58
2017-09-13T00:13:05.276Z,784.6
2017-09-13T00:13:09.365Z,784.59
2017-09-13T00:13:13.193Z,784.58
2017-09-13T00:13:17.392Z,784.56
2017-09-13T00:13:21.729Z,784.59
2017-09-13T00:13:25.694Z,784.6
2017-09-13T00:13:29.851Z,784.61
2017-09-13T00:13:33.929Z,784.56
2017-09-13T00:13:37.997Z,784.6
2017-09-13T00:13:42.071Z,784.58
2017-09-13T00:13:46.038Z,784.59
2017-09-13T00:13:50.004Z,784.58
2017-09-13T00:13:53.968Z,784.58
2017-09-13T00:13:58.192Z,784.57
2017-09-13T00:14:02.404Z,784.56
2017-09-13T00:14:06.627Z,784.58
2017-09-13T00:14:10.569Z,784.56
2017-09-13T00:14:14.651Z,784.56
2017-09-13T00:14:19.120Z,784.61
2017-09-13T00:14:23.446Z,784.56
2017-09-13T00:14:27.525Z,784.53
2017-09-13T00:14:31.365Z,784.58
2017-09-13T00:14:35.441Z,784.58
2017-09-13T00:14:39.522Z,784.55
2017-09-13T00:14:43.496Z,784.53
2017-09-13T00:14:47.851Z,784.55
2017-09-13T00:14:51.951Z,784.56
2017-09-13T00:14:56.157Z,784.55
2017-09-13T00:15:00.120Z,784.55
2017-09-13T00:15:04.079Z,784.5
2017-09-13T00:15:08.312Z,784.56
2017-09-13T00:15:12.516Z,784.54
2017-09-13T00:15:16.466Z,784.57
2017-09-13T00:15:20.564Z,784.55
2017-09-13T00:15:24.532Z,784.53
2017-09-13T00:15:28.474Z,784.52
2017-09-13T00:15:32.809Z,784.54
2017-09-13T00:15:37.026Z,784.52
2017-09-13T00:15:41.248Z,784.54
2017-09-13T00:15:45.334Z,784.51
2017-09-13T00:15:49.429Z,784.52
2017-09-13T00:15:53.772Z,784.5
2017-09-13T00:15:57.745Z,784.51
2017-09-13T00:16:02.075Z,784.5
2017-09-13T00:16:06.154Z,784.5
2017-09-13T00:16:10.232Z,784.46
2017-09-13T00:16:14.320Z,784.47
2017-09-13T00:16:18.532Z,784.49
2017-09-13T00:16:22.733Z,784.46
2017-09-13T00:16:26.812Z,784.44
2017-09-13T00:16:31.030Z,784.44
2017-09-13T00:16:34.730Z,784.42
2017-09-13T00:16:38.695Z,784.39
2017-09-13T00:16:42.534Z,784.43
2017-09-13T00:16:46.762Z,784.42
2017-09-13T00:16:50.973Z,784.46
2017-09-13T00:16:54.827Z,784.45
2017-09-13T00:16:59.155Z,784.45
2017-09-13T00:17:03.655Z,784.4
2017-09-13T00:17:07.605Z,784.35
2017-09-13T00:17:11.697Z,784.41
2017-09-13T00:17:15.661Z,784.41
2017-09-13T00:17:19.874Z,784.39
2017-09-13T00:17:23.960Z,784.38
2017-09-13T00:17:27.916Z,784.37
2017-09-13T00:17:31.887Z,784.39
2017-09-13T00:17:35.984Z,784.33
2017-09-13T00:17:39.932Z,784.39
2017-09-13T00:17:44.130Z,784.38
2017-09-13T00:17:47.841Z,784.36
2017-09-13T00:17:51.931Z,784.35
2017-09-13T00:17:56.024Z,784.38
2017-09-13T00:18:00.007Z,784.34
2017-09-13T00:18:04.347Z,784.38
2017-09-13T00:18:08.561Z,784.34
2017-09-13T00:18:12.896Z,784.33
2017-09-13T00:18:16.993Z,784.32
2017-09-13T00:18:21.329Z,784.33
2017-09-13T00:18:25.434Z,784.33
2017-09-13T00:18:29.392Z,784.32
2017-09-13T00:18:33.488Z,784.27
2017-09-13T00:18:37.575Z,784.32
2017-09-13T00:18:41.669Z,784.32
2017-09-13T00:18:45.997Z,784.28
2017-09-13T00:18:50.090Z,784.28
2017-09-13T00:18:54.181Z,784.29
2017-09-13T00:18:58.008Z,784.29
2017-09-13T00:19:02.074Z,784.24
2017-09-13T00:19:06.293Z,784.24
2017-09-13T00:19:10.504Z,784.21
2017-09-13T00:19:14.344Z,784.28
2017-09-13T00:19:18.171Z,784.24
2017-09-13T00:19:21.998Z,784.27
2017-09-13T00:19:25.838Z,784.25
2017-09-13T00:19:29.833Z,784.23
2017-09-13T00:19:33.797Z,784.24
2017-09-13T00:19:37.623Z,784.23
2017-09-13T00:19:41.450Z,784.24
2017-09-13T00:19:45.780Z,784.22
2017-09-13T00:19:49.880Z,784.18
2017-09-13T00:19:53.837Z,784.2
2017-09-13T00:19:57.793Z,784.17
2017-09-13T00:20:01.996Z,784.18
2017-09-13T00:20:05.959Z,784.16
2017-09-13T00:20:10.179Z,784.17
2017-09-13T00:20:14.135Z,784.17
2017-09-13T00:20:18.212Z,784.16
2017-09-13T00:20:22.325Z,784.19
2017-09-13T00:20:26.159Z,784.21
2017-09-13T00:20:30.240Z,784.19
2017-09-13T00:20:34.217Z,784.2
2017-09-13T00:20:38.180Z,784.18
2017-09-13T00:20:42.376Z,784.19
2017-09-13T00:20:46.332Z,784.15
2017-09-13T00:20:50.666Z,784.17
2017-09-13T00:20:54.630Z,784.18
2017-09-13T00:20:58.845Z,784.17
2017-09-13T00:21:03.061Z,784.19
2017-09-13T00:21:07.274Z,784.21
2017-09-13T00:21:11.368Z,784.21
2017-09-13T00:21:15.216Z,784.17
2017-09-13T00:21:19.046Z,784.17
2017-09-13T00:21:22.992Z,784.13
2017-09-13T00:21:27.083Z,784.1
2017-09-13T00:21:31.046Z,784.13
2017-09-13T00:21:35.150Z,784.11
2017-09-13T00:21:39.360Z,784.14
2017-09-13T00:21:43.309Z,784.17
2017-09-13T00:21:47.532Z,784.14
2017-09-13T00:21:51.996Z,784.08
2017-09-13T00:21:55.822Z,784.1
2017-09-13T00:21:59.782Z,784.1
2017-09-13T00:22:04.222Z,784.11
2017-09-13T00:22:08.203Z,784.12
2017-09-13T00:22:12.155Z,784.09
2017-09-13T00:22:16.238Z,784.1
2017-09-13T00:22:20.074Z,784.1
2017-09-13T00:22:24.040Z,784.1
2017-09-13T00:22:27.868Z,784.1
2017-09-13T00:22:31.714Z,784.09
2017-09-13T00:22:35.674Z,784.09
2017-09-13T00:22:39.867Z,784.06
2017-09-13T00:22:43.954Z,784.07
2017-09-13T00:22:48.165Z,784.08
2017-09-13T00:22:52.125Z,784.07
2017-09-13T00:22:56.331Z,784.07
2017-09-13T00:23:00.803Z,784.05
2017-09-13T00:23:04.924Z,784.06
2017-09-13T00:23:09.129Z,784.02
2017-09-13T00:23:13.198Z,784.07
2017-09-13T00:23:17.041Z,784.07
2017-09-13T00:23:21.009Z,784.03
2017-09-13T00:23:25.340Z,784.09
2017-09-13T00:23:29.548Z,784.06
2017-09-13T00:23:33.509Z,784.06
2017-09-13T00:23:37.592Z,784.04
2017-09-13T00:23:41.549Z,784.07
2017-09-13T00:23:45.523Z,784.08
2017-09-13T00:23:49.494Z,784.06
2017-09-13T00:23:53.574Z,784.04
2017-09-13T00:23:57.677Z,784.03
2017-09-13T00:24:01.884Z,784.03
2017-09-13T00:24:06.009Z,784.05
2017-09-13T00:24:10.141Z,784.05
2017-09-13T00:24:14.104Z,784.03
2017-09-13T00:24:18.438Z,784.02
2017-09-13T00:24:22.537Z,784
2017-09-13T00:24:26.620Z,784.03
2017-09-13T00:24:30.593Z,784.05
2017-09-13T00:24:34.795Z,784.04
2017-09-13T00:24:39.009Z,784.05
2017-09-13T00:24:43.095Z,784.04
2017-09-13T00:24:47.301Z,784.04
2017-09-13T00:24:51.122Z,784.04
2017-09-13T00:24:55.073Z,784.01
2017-09-13T00:24:58.919Z,784.04
2017-09-13T00:25:03.387Z,784.03
2017-09-13T00:25:07.484Z,783.97
2017-09-13T00:25:11.573Z,784.01
2017-09-13T00:25:15.525Z,784.02
2017-09-13T00:25:19.864Z,784.02
2017-09-13T00:25:24.081Z,784.02
2017-09-13T00:25:28.310Z,784.03
2017-09-13T00:25:32.641Z,784.05
2017-09-13T00:25:36.614Z,784.05
2017-09-13T00:25:40.817Z,784.02
2017-09-13T00:25:44.778Z,784.02
2017-09-13T00:25:48.862Z,784.07
2017-09-13T00:25:53.076Z,784.04
2017-09-13T00:25:56.910Z,784.03
2017-09-13T00:26:00.749Z,784.05
2017-09-13T00:26:04.584Z,784.06
2017-09-13T00:26:08.533Z,784.05
2017-09-13T00:26:12.746Z,784.05
2017-09-13T00:26:16.957Z,784.04
2017-09-13T00:26:21.048Z,784.02
2017-09-13T00:26:25.405Z,784.05
2017-09-13T00:26:29.364Z,784.05
2017-09-13T00:26:33.710Z,784.02
2017-09-13T00:26:37.919Z,784.05
2017-09-13T00:26:41.877Z,784.04
2017-09-13T00:26:46.098Z,784.03
2017-09-13T00:26:50.440Z,784.02
2017-09-13T00:26:54.398Z,784.06
2017-09-13T00:26:58.630Z,784.07
2017-09-13T00:27:02.722Z,784.05
2017-09-13T00:27:06.802Z,784.07
2017-09-13T00:27:10.922Z,784.05
2017-09-13T00:27:15.140Z,784.08
2017-09-13T00:27:19.111Z,784.09
2017-09-13T00:27:22.814Z,784.02
2017-09-13T00:27:27.160Z,784.05
2017-09-13T00:27:31.110Z,784.08
2017-09-13T00:27:35.086Z,784.1
2017-09-13T00:27:39.158Z,784.07
2017-09-13T00:27:43.127Z,784.07
2017-09-13T00:27:47.340Z,784.07
2017-09-13T00:27:51.431Z,784.04
2017-09-13T00:27:55.643Z,784.09
2017-09-13T00:27:59.599Z,784.09
2017-09-13T00:28:03.981Z,784.04
2017-09-13T00:28:08.079Z,784.05
2017-09-13T00:28:12.039Z,784.04
2017-09-13T00:28:16.253Z,784.05
2017-09-13T00:28:20.471Z,784.08
2017-09-13T00:28:24.437Z,784.07
2017-09-13T00:28:28.517Z,784.1
2017-09-13T00:28:32.479Z,784.08
2017-09-13T00:28:36.318Z,784.1
2017-09-13T00:28:40.512Z,784.1
2017-09-13T00:28:44.470Z,784.09
2017-09-13T00:28:48.568Z,784.08
2017-09-13T00:28:52.522Z,784.1
2017-09-13T00:28:56.464Z,784.1
2017-09-13T00:29:00.436Z,784.11
2017-09-13T00:29:04.280Z,784.09
2017-09-13T00:29:08.617Z,784.11
2017-09-13T00:29:12.690Z,784.07
2017-09-13T00:29:16.520Z,784.08
2017-09-13T00:29:20.845Z,784.1
2017-09-13T00:29:24.942Z,784.11
2017-09-13T00:29:29.274Z,784.07
2017-09-13T00:29:33.354Z,784.04
2017-09-13T00:29:37.429Z,784.07
2017-09-13T00:29:41.889Z,784.04
2017-09-13T00:29:45.984Z,784.08
2017-09-13T00:29:50.209Z,784.09
2017-09-13T00:29:53.915Z,784.1
2017-09-13T00:29:57.749Z,784.08
2017-09-13T00:30:02.078Z,784.08
2017-09-13T00:30:06.161Z,784.08
2017-09-13T00:30:10.122Z,784.09
2017-09-13T00:30:14.201Z,784.09
2017-09-13T00:30:18.288Z,784.09
2017-09-13T00:30:22.241Z,784.1
2017-09-13T00:30:26.327Z,784.11
2017-09-13T00:30:30.412Z,784.13
2017-09-13T00:30:34.628Z,784.13
2017-09-13T00:30:38.714Z,784.09
2017-09-13T00:30:42.675Z,784.09
2017-09-13T00:30:46.643Z,784.11
2017-09-13T00:30:50.730Z,784.12
2017-09-13T00:30:54.832Z,784.08
2017-09-13T00:30:58.683Z,784.11
2017-09-13T00:31:03.106Z,784.1
2017-09-13T00:31:06.944Z,784.11
2017-09-13T00:31:11.031Z,784.11
2017-09-13T00:31:15.246Z,784.13
2017-09-13T00:31:19.210Z,784.1
2017-09-13T00:31:23.432Z,784.12
2017-09-13T00:31:27.648Z,784.15
2017-09-13T00:31:31.845Z,784.14
2017-09-13T00:31:35.942Z,784.14
2017-09-13T00:31:40.028Z,784.14
2017-09-13T00:31:43.869Z,784.13
2017-09-13T00:31:47.942Z,784.14
2017-09-13T00:31:52.021Z,784.13
2017-09-13T00:31:56.360Z,784.14
2017-09-13T00:32:00.442Z,784.14
2017-09-13T00:32:04.787Z,784.14
2017-09-13T00:32:08.866Z,784.1
2017-09-13T00:32:13.083Z,784.11
2017-09-13T00:32:16.927Z,784.1
2017-09-13T00:32:21.123Z,784.14
2017-09-13T00:32:24.953Z,784.1
2017-09-13T00:32:29.298Z,784.07
2017-09-13T00:32:33.127Z,784.09
2017-09-13T00:32:37.351Z,784.13
2017-09-13T00:32:41.190Z,784.15
2017-09-13T00:32:45.287Z,784.12
2017-09-13T00:32:49.375Z,784.11
2017-09-13T00:32:53.091Z,784.12
2017-09-13T00:32:57.159Z,784.13
2017-09-13T00:33:00.865Z,784.14
2017-09-13T00:33:04.852Z,784.13
2017-09-13T00:33:08.933Z,784.14
2017-09-13T00:33:13.263Z,784.14
2017-09-13T00:33:17.222Z,784.14
2017-09-13T00:33:21.438Z,784.13
2017-09-13T00:33:25.394Z,784.17
2017-09-13T00:33:29.717Z,784.16
2017-09-13T00:33:33.679Z,784.16
2017-09-13T00:33:37.763Z,784.12
2017-09-13T00:33:41.838Z,784.13
2017-09-13T00:33:45.917Z,784.11
2017-09-13T00:33:49.996Z,784.14
2017-09-13T00:33:54.365Z,784.16
2017-09-13T00:33:58.457Z,784.16
2017-09-13T00:34:02.695Z,784.16
2017-09-13T00:34:07.029Z,784.16
2017-09-13T00:34:10.996Z,784.16
2017-09-13T00:34:15.335Z,784.14
2017-09-13T00:34:19.417Z,784.17
2017-09-13T00:34:23.372Z,784.15
2017-09-13T00:34:27.590Z,784.17
2017-09-13T00:34:31.693Z,784.19
2017-09-13T00:34:35.523Z,784.17
2017-09-13T00:34:39.475Z,784.15
2017-09-13T00:34:43.448Z,784.15
2017-09-13T00:34:47.296Z,784.16
2017-09-13T00:34:51.131Z,784.18
2017-09-13T00:34:55.226Z,784.17
2017-09-13T00:34:59.318Z,784.19
2017-09-13T00:35:03.708Z,784.16
2017-09-13T00:35:07.928Z,784.2
2017-09-13T00:35:12.387Z,784.17
2017-09-13T00:35:16.598Z,784.18
2017-09-13T00:35:20.817Z,784.16
2017-09-13T00:35:24.769Z,784.19
2017-09-13T00:35:28.717Z,784.18
2017-09-13T00:35:32.671Z,784.18
2017-09-13T00:35:36.639Z,784.11
2017-09-13T00:35:40.842Z,784.13
2017-09-13T00:35:44.926Z,784.12
2017-09-13T00:35:49.151Z,784.2
2017-09-13T00:35:53.104Z,784.2
2017-09-13T00:35:57.188Z,784.17
2017-09-13T00:36:01.401Z,784.21
2017-09-13T00:36:05.624Z,784.2
2017-09-13T00:36:09.472Z,784.19
2017-09-13T00:36:13.687Z,784.18
2017-09-13T00:36:17.772Z,784.18
2017-09-13T00:36:21.724Z,784.21
2017-09-13T00:36:25.810Z,784.22
2017-09-13T00:36:29.766Z,784.16
2017-09-13T00:36:33.975Z,784.18
2017-09-13T00:36:38.206Z,784.16
2017-09-13T00:36:42.180Z,784.24
2017-09-13T00:36:46.387Z,784.19
2017-09-13T00:36:50.225Z,784.16
2017-09-13T00:36:54.696Z,784.16
2017-09-13T00:36:58.903Z,784.14
2017-09-13T00:37:03.169Z,784.16
2017-09-13T00:37:07.245Z,784.22
2017-09-13T00:37:11.472Z,784.22
2017-09-13T00:37:15.438Z,784.2
2017-09-13T00:37:19.646Z,784.21
2017-09-13T00:37:23.732Z,784.22
2017-09-13T00:37:27.959Z,784.21
2017-09-13T00:37:31.792Z,784.2
2017-09-13T00:37:35.993Z,784.2
2017-09-13T00:37:39.831Z,784.21
2017-09-13T00:37:44.055Z,784.2
2017-09-13T00:37:48.395Z,784.21
2017-09-13T00:37:52.477Z,784.21
2017-09-13T00:37:56.454Z,784.22
2017-09-13T00:38:00.526Z,784.21
2017-09-13T00:38:04.369Z,784.23
2017-09-13T00:38:08.574Z,784.2
2017-09-13T00:38:13.016Z,784.22
2017-09-13T00:38:16.971Z,784.2
2017-09-13T00:38:21.174Z,784.24
2017-09-13T00:38:25.272Z,784.21
2017-09-13T00:38:29.349Z,784.23
2017-09-13T00:38:33.674Z,784.22
2017-09-13T00:38:37.797Z,784.2
2017-09-13T00:38:41.997Z,784.24
2017-09-13T00:38:45.946Z,784.16
2017-09-13T00:38:50.030Z,784.18
2017-09-13T00:38:54.093Z,784.25
2017-09-13T00:38:58.045Z,784.2
2017-09-13T00:39:02.543Z,784.23
2017-09-13T00:39:06.512Z,784.24
2017-09-13T00:39:10.731Z,784.25
2017-09-13T00:39:14.696Z,784.21
2017-09-13T00:39:18.909Z,784.2
2017-09-13T00:39:22.759Z,784.18
2017-09-13T00:39:26.838Z,784.25
2017-09-13T00:39:31.165Z,784.18
2017-09-13T00:39:35.237Z,784.22
2017-09-13T00:39:39.436Z,784.2
2017-09-13T00:39:43.513Z,784.24
2017-09-13T00:39:47.356Z,784.21
2017-09-13T00:39:51.574Z,784.21
2017-09-13T00:39:55.660Z,784.22
2017-09-13T00:39:59.370Z,784.25
2017-09-13T00:40:03.463Z,784.23
2017-09-13T00:40:07.437Z,784.21
2017-09-13T00:40:11.528Z,784.24
2017-09-13T00:40:15.495Z,784.22
2017-09-13T00:40:19.574Z,784.23
2017-09-13T00:40:23.655Z,784.22
2017-09-13T00:40:27.987Z,784.2
2017-09-13T00:40:32.203Z,784.16
2017-09-13T00:40:35.905Z,784.21
2017-09-13T00:40:39.752Z,784.24
2017-09-13T00:40:43.838Z,784.2
2017-09-13T00:40:48.055Z,784.23
2017-09-13T00:40:52.016Z,784.16
2017-09-13T00:40:55.858Z,784.22
2017-09-13T00:41:00.065Z,784.21
2017-09-13T00:41:04.707Z,784.19
2017-09-13T00:41:08.705Z,784.2
2017-09-13T00:41:12.930Z,784.2
2017-09-13T00:41:17.016Z,784.19
2017-09-13T00:41:21.093Z,784.21
2017-09-13T00:41:25.433Z,784.14
2017-09-13T00:41:29.766Z,784.13
2017-09-13T00:41:33.842Z,784.18
2017-09-13T00:41:37.796Z,784.17
2017-09-13T00:41:42.004Z,784.15
2017-09-13T00:41:46.221Z,784.19
2017-09-13T00:41:50.301Z,784.16
2017-09-13T00:41:54.630Z,784.17
2017-09-13T00:41:58.855Z,784.18
2017-09-13T00:42:03.190Z,784.15
2017-09-13T00:42:07.155Z,784.19
2017-09-13T00:42:11.363Z,784.15
2017-09-13T00:42:15.334Z,784.19
2017-09-13T00:42:19.420Z,784.1
2017-09-13T00:42:23.507Z,784.1
2017-09-13T00:42:27.457Z,784.12
2017-09-13T00:42:31.408Z,784.12
2017-09-13T00:42:35.507Z,784.12
2017-09-13T00:42:39.608Z,784.14
2017-09-13T00:42:43.951Z,784.14
2017-09-13T00:42:47.804Z,784.11
2017-09-13T00:42:51.996Z,784.09
2017-09-13T00:42:56.219Z,784.14
2017-09-13T00:43:00.431Z,784.14
2017-09-13T00:43:04.507Z,784.1
2017-09-13T00:43:08.472Z,784.07
2017-09-13T00:43:12.690Z,784.09
2017-09-13T00:43:16.912Z,784.09
2017-09-13T00:43:21.108Z,784.09
2017-09-13T00:43:25.196Z,784.08
2017-09-13T00:43:29.405Z,784.11
2017-09-13T00:43:33.609Z,784.1
2017-09-13T00:43:37.582Z,784.06
2017-09-13T00:43:41.795Z,784.08
2017-09-13T00:43:46.148Z,784.06
2017-09-13T00:43:50.118Z,784.08
2017-09-13T00:43:54.074Z,783.97
2017-09-13T00:43:58.162Z,784.04
2017-09-13T00:44:02.146Z,784.05
2017-09-13T00:44:06.366Z,784.04
2017-09-13T00:44:10.573Z,784.02
2017-09-13T00:44:14.399Z,784.02
2017-09-13T00:44:18.484Z,784.02
2017-09-13T00:44:22.696Z,784.03
2017-09-13T00:44:26.778Z,784
2017-09-13T00:44:31.236Z,784
2017-09-13T00:44:35.342Z,784.01
2017-09-13T00:44:39.551Z,783.97
2017-09-13T00:44:43.763Z,783.97
2017-09-13T00:44:47.854Z,783.96
2017-09-13T00:44:51.687Z,783.97
2017-09-13T00:44:55.644Z,783.96
2017-09-13T00:44:59.593Z,783.98
2017-09-13T00:45:03.792Z,783.96
2017-09-13T00:45:08.020Z,783.99
2017-09-13T00:45:12.094Z,783.93
2017-09-13T00:45:16.054Z,783.95
2017-09-13T00:45:20.147Z,783.96
2017-09-13T00:45:24.353Z,783.9
2017-09-13T00:45:28.314Z,783.91
2017-09-13T00:45:32.268Z,783.9
2017-09-13T00:45:36.365Z,783.92
2017-09-13T00:45:40.465Z,783.92
2017-09-13T00:45:44.788Z,783.91
2017-09-13T00:45:48.878Z,783.93
2017-09-13T00:45:52.599Z,783.84
2017-09-13T00:45:56.696Z,783.92
2017-09-13T00:46:00.776Z,783.9
2017-09-13T00:46:05.057Z,783.91
2017-09-13T00:46:09.138Z,783.88
2017-09-13T00:46:13.347Z,783.88
2017-09-13T00:46:17.470Z,783.88
2017-09-13T00:46:21.541Z,783.89
2017-09-13T00:46:25.751Z,783.87
2017-09-13T00:46:29.961Z,783.82
2017-09-13T00:46:33.931Z,783.83
2017-09-13T00:46:38.270Z,783.84
2017-09-13T00:46:42.343Z,783.87
2017-09-13T00:46:46.185Z,783.88
2017-09-13T00:46:50.154Z,783.84
2017-09-13T00:46:54.158Z,783.87
2017-09-13T00:46:58.358Z,783.83
2017-09-13T00:47:02.547Z,783.75
2017-09-13T00:47:06.628Z,783.8
2017-09-13T00:47:10.709Z,783.85
2017-09-13T00:47:14.655Z,783.8
2017-09-13T00:47:18.855Z,783.81
2017-09-13T00:47:22.815Z,783.84
2017-09-13T00:47:27.041Z,783.81
2017-09-13T00:47:31.131Z,783.78
2017-09-13T00:47:35.340Z,783.78
2017-09-13T00:47:39.283Z,783.79
2017-09-13T00:47:43.490Z,783.78
2017-09-13T00:47:47.574Z,783.77
2017-09-13T00:47:51.920Z,783.81
2017-09-13T00:47:55.873Z,783.71
2017-09-13T00:47:59.712Z,783.79
2017-09-13T00:48:03.796Z,783.74
2017-09-13T00:48:07.631Z,783.75
2017-09-13T00:48:11.721Z,783.77
2017-09-13T00:48:15.799Z,783.76
2017-09-13T00:48:19.752Z,783.75
2017-09-13T00:48:24.216Z,783.72
2017-09-13T00:48:28.159Z,783.72
2017-09-13T00:48:32.234Z,783.75
2017-09-13T00:48:36.581Z,783.72
2017-09-13T00:48:40.793Z,783.73
2017-09-13T00:48:44.749Z,783.72
2017-09-13T00:48:48.712Z,783.75
2017-09-13T00:48:52.796Z,783.72
2017-09-13T00:48:56.632Z,783.71
2017-09-13T00:49:00.599Z,783.7
2017-09-13T00:49:04.694Z,783.7
2017-09-13T00:49:08.650Z,783.65
2017-09-13T00:49:12.623Z,783.68
2017-09-13T00:49:16.708Z,783.71
2017-09-13T00:49:21.044Z,783.68
2017-09-13T00:49:25.116Z,783.71
2017-09-13T00:49:29.352Z,783.7
2017-09-13T00:49:33.692Z,783.67
2017-09-13T00:49:37.902Z,783.64
2017-09-13T00:49:41.607Z,783.62
2017-09-13T00:49:45.801Z,783.62
2017-09-13T00:49:49.753Z,783.66
2017-09-13T00:49:53.714Z,783.61
2017-09-13T00:49:57.564Z,783.62
2017-09-13T00:50:01.531Z,783.63
2017-09-13T00:50:05.612Z,783.59
2017-09-13T00:50:09.830Z,783.62
2017-09-13T00:50:13.905Z,783.62
2017-09-13T00:50:17.863Z,783.59
2017-09-13T00:50:21.944Z,783.63
2017-09-13T00:50:26.031Z,783.64
2017-09-13T00:50:30.122Z,783.63
2017-09-13T00:50:34.197Z,783.62
2017-09-13T00:50:38.147Z,783.58
2017-09-13T00:50:42.345Z,783.61
2017-09-13T00:50:46.428Z,783.62
2017-09-13T00:50:50.634Z,783.61
2017-09-13T00:50:54.598Z,783.56
2017-09-13T00:50:58.553Z,783.58
2017-09-13T00:51:02.651Z,783.59
2017-09-13T00:51:06.870Z,783.56
2017-09-13T00:51:10.950Z,783.56
2017-09-13T00:51:14.672Z,783.57